sensor_id;sensor_type;location;lat;lon;timestamp;pressure;altitude;pressure_sealevel;temperature;humidity
22259;BME280;11298;46.034;14.496;2022-07-01T08:39:53;97984.88;;;31.42;45.25
22259;BME280;11298;46.034;14.496;2022-07-01T08:42:20;97980.66;;;31.92;43.51
22259;BME280;11298;46.034;14.496;2022-07-01T08:44:47;97981.34;;;32.17;41.77
22259;BME280;11298;46.034;14.496;2022-07-01T08:47:14;97979.38;;;32.33;40.76
22259;BME280;11298;46.034;14.496;2022-07-01T08:49:42;97978.38;;;32.41;39.79
22259;BME280;11298;46.034;14.496;2022-07-01T08:52:10;97978.53;;;32.64;41.22
22259;BME280;11298;46.034;14.496;2022-07-01T08:54:37;97977.22;;;33.09;38.89
22259;BME280;11298;46.034;14.496;2022-07-01T08:57:07;97973.28;;;33.48;38.36
22259;BME280;11298;46.034;14.496;2022-07-01T08:59:34;97982.28;;;33.77;33.89
22259;BME280;11298;46.034;14.496;2022-07-01T09:02:03;97971.28;;;34.10;34.35
22259;BME280;11298;46.034;14.496;2022-07-01T09:04:33;97983.06;;;33.93;34.06
22259;BME280;11298;46.034;14.496;2022-07-01T09:07:08;97978.88;;;34.06;36.11
22259;BME280;11298;46.034;14.496;2022-07-01T09:09:38;97974.81;;;34.26;34.81
22259;BME280;11298;46.034;14.496;2022-07-01T09:12:06;97982.66;;;34.37;35.35
22259;BME280;11298;46.034;14.496;2022-07-01T09:14:34;97985.84;;;34.58;34.64
22259;BME280;11298;46.034;14.496;2022-07-01T09:17:05;97975.53;;;34.69;33.95
22259;BME280;11298;46.034;14.496;2022-07-01T09:19:35;97970.56;;;34.59;33.75
22259;BME280;11298;46.034;14.496;2022-07-01T09:22:11;97968.19;;;34.61;33.60
22259;BME280;11298;46.034;14.496;2022-07-01T09:24:41;97969.75;;;34.36;34.70
22259;BME280;11298;46.034;14.496;2022-07-01T09:27:13;97960.72;;;34.49;35.55
22259;BME280;11298;46.034;14.496;2022-07-01T09:29:44;97968.75;;;34.97;37.12
22259;BME280;11298;46.034;14.496;2022-07-01T09:32:13;97963.03;;;35.49;34.73
22259;BME280;11298;46.034;14.496;2022-07-01T09:34:44;97969.72;;;35.38;31.18
22259;BME280;11298;46.034;14.496;2022-07-01T09:37:12;97970.44;;;35.61;32.57
22259;BME280;11298;46.034;14.496;2022-07-01T09:39:51;97963.94;;;35.90;31.32
22259;BME280;11298;46.034;14.496;2022-07-01T09:42:21;97958.81;;;36.00;32.35
22259;BME280;11298;46.034;14.496;2022-07-01T09:47:32;97955.22;;;36.47;31.18
22259;BME280;11298;46.034;14.496;2022-07-01T09:50:00;97953.00;;;36.70;31.79
22259;BME280;11298;46.034;14.496;2022-07-01T09:52:27;97954.72;;;36.85;31.13
22259;BME280;11298;46.034;14.496;2022-07-01T09:55:04;97956.16;;;36.62;29.92
22259;BME280;11298;46.034;14.496;2022-07-01T09:57:31;97960.00;;;36.36;29.74
22259;BME280;11298;46.034;14.496;2022-07-01T09:59:58;97946.06;;;35.79;30.59
22259;BME280;11298;46.034;14.496;2022-07-01T10:02:27;97942.28;;;35.68;30.31
22259;BME280;11298;46.034;14.496;2022-07-01T10:05:02;97944.75;;;35.40;30.30
22259;BME280;11298;46.034;14.496;2022-07-01T10:13:17;97934.59;;;35.32;32.35
22259;BME280;11298;46.034;14.496;2022-07-01T10:15:46;97925.00;;;35.77;30.76
22259;BME280;11298;46.034;14.496;2022-07-01T10:18:23;97933.13;;;36.19;30.16
22259;BME280;11298;46.034;14.496;2022-07-01T10:20:51;97926.22;;;35.76;28.94
22259;BME280;11298;46.034;14.496;2022-07-01T10:23:21;97917.25;;;36.07;30.79
22259;BME280;11298;46.034;14.496;2022-07-01T10:25:50;97929.69;;;36.40;29.56
22259;BME280;11298;46.034;14.496;2022-07-01T10:28:40;97931.09;;;36.60;32.56
22259;BME280;11298;46.034;14.496;2022-07-01T10:31:15;97923.13;;;36.76;32.02
22259;BME280;11298;46.034;14.496;2022-07-01T10:33:56;97915.97;;;36.93;30.52
22259;BME280;11298;46.034;14.496;2022-07-01T10:41:37;97910.56;;;37.36;27.55
22259;BME280;11298;46.034;14.496;2022-07-01T10:44:09;97915.78;;;37.30;29.18
22259;BME280;11298;46.034;14.496;2022-07-01T10:46:45;97915.09;;;37.62;30.23
22259;BME280;11298;46.034;14.496;2022-07-01T10:49:18;97917.91;;;37.62;28.80
22259;BME280;11298;46.034;14.496;2022-07-01T10:51:56;97922.31;;;37.48;29.44
22259;BME280;11298;46.034;14.496;2022-07-01T10:59:55;97909.31;;;37.33;28.19
22259;BME280;11298;46.034;14.496;2022-07-01T11:02:27;97913.00;;;37.48;27.55
22259;BME280;11298;46.034;14.496;2022-07-01T11:04:58;97906.78;;;37.17;28.17
22259;BME280;11298;46.034;14.496;2022-07-01T11:07:31;97907.31;;;37.37;27.30
22259;BME280;11298;46.034;14.496;2022-07-01T11:10:00;97903.56;;;37.19;27.73
22259;BME280;11298;46.034;14.496;2022-07-01T11:12:29;97896.44;;;36.77;27.80
22259;BME280;11298;46.034;14.496;2022-07-01T11:14:58;97888.03;;;36.88;30.09
22259;BME280;11298;46.034;14.496;2022-07-01T11:17:27;97893.22;;;36.79;29.27
22259;BME280;11298;46.034;14.496;2022-07-01T11:19:57;97886.47;;;36.98;28.08
22259;BME280;11298;46.034;14.496;2022-07-01T11:22:29;97891.88;;;37.24;29.26
22259;BME280;11298;46.034;14.496;2022-07-01T11:24:59;97892.81;;;37.64;30.12
22259;BME280;11298;46.034;14.496;2022-07-01T11:27:28;97888.88;;;38.11;32.04
22259;BME280;11298;46.034;14.496;2022-07-01T11:29:58;97896.59;;;38.53;28.33
22259;BME280;11298;46.034;14.496;2022-07-01T11:32:37;97898.22;;;38.75;29.64
22259;BME280;11298;46.034;14.496;2022-07-01T11:35:06;97888.47;;;38.55;27.27
22259;BME280;11298;46.034;14.496;2022-07-01T11:38:10;97880.81;;;38.59;26.83
22259;BME280;11298;46.034;14.496;2022-07-01T11:40:59;97876.31;;;38.72;26.66
22259;BME280;11298;46.034;14.496;2022-07-01T11:43:30;97869.41;;;38.55;26.22
22259;BME280;11298;46.034;14.496;2022-07-01T11:45:58;97866.63;;;38.31;26.13
22259;BME280;11298;46.034;14.496;2022-07-01T11:48:41;97862.97;;;38.59;27.59
22259;BME280;11298;46.034;14.496;2022-07-01T11:51:17;97873.50;;;38.72;28.39
22259;BME280;11298;46.034;14.496;2022-07-01T11:53:48;97869.03;;;38.57;25.67
22259;BME280;11298;46.034;14.496;2022-07-01T11:56:29;97866.22;;;38.57;28.27
22259;BME280;11298;46.034;14.496;2022-07-01T11:58:57;97865.75;;;37.87;26.65
22259;BME280;11298;46.034;14.496;2022-07-01T12:03:54;97841.00;;;36.69;27.92
22259;BME280;11298;46.034;14.496;2022-07-01T12:06:22;97845.47;;;36.70;28.04
22259;BME280;11298;46.034;14.496;2022-07-01T12:08:51;97848.34;;;36.22;29.22
22259;BME280;11298;46.034;14.496;2022-07-01T12:11:20;97852.31;;;36.14;29.54
22259;BME280;11298;46.034;14.496;2022-07-01T12:13:50;97849.09;;;36.16;29.57
22259;BME280;11298;46.034;14.496;2022-07-01T12:16:18;97846.09;;;36.46;29.57
22259;BME280;11298;46.034;14.496;2022-07-01T12:19:02;97835.97;;;37.07;32.41
22259;BME280;11298;46.034;14.496;2022-07-01T12:21:30;97830.44;;;37.35;27.85
22259;BME280;11298;46.034;14.496;2022-07-01T12:24:11;97829.16;;;37.22;28.13
22259;BME280;11298;46.034;14.496;2022-07-01T12:26:49;97824.13;;;36.83;29.16
22259;BME280;11298;46.034;14.496;2022-07-01T12:29:21;97820.09;;;36.88;28.33
22259;BME280;11298;46.034;14.496;2022-07-01T12:32:05;97819.28;;;36.87;28.14
22259;BME280;11298;46.034;14.496;2022-07-01T12:37:15;97800.47;;;37.34;27.30
22259;BME280;11298;46.034;14.496;2022-07-01T12:39:51;97813.47;;;37.56;29.13
22259;BME280;11298;46.034;14.496;2022-07-01T12:44:51;97796.13;;;37.76;30.43
22259;BME280;11298;46.034;14.496;2022-07-01T12:47:32;97798.09;;;37.57;27.62
22259;BME280;11298;46.034;14.496;2022-07-01T12:50:17;97799.75;;;37.73;28.57
22259;BME280;11298;46.034;14.496;2022-07-01T12:55:24;97816.69;;;37.41;28.00
22259;BME280;11298;46.034;14.496;2022-07-01T12:57:55;97811.84;;;37.63;28.46
22259;BME280;11298;46.034;14.496;2022-07-01T13:00:23;97816.72;;;37.66;28.17
22259;BME280;11298;46.034;14.496;2022-07-01T13:02:56;97803.69;;;37.22;27.74
22259;BME280;11298;46.034;14.496;2022-07-01T13:05:23;97794.00;;;37.30;28.47
22259;BME280;11298;46.034;14.496;2022-07-01T13:07:50;97787.97;;;37.53;28.11
22259;BME280;11298;46.034;14.496;2022-07-01T13:10:18;97794.50;;;37.75;26.84
22259;BME280;11298;46.034;14.496;2022-07-01T13:12:46;97807.84;;;37.88;27.98
22259;BME280;11298;46.034;14.496;2022-07-01T13:15:14;97807.41;;;37.58;29.57
22259;BME280;11298;46.034;14.496;2022-07-01T13:17:42;97819.78;;;37.07;30.74
22259;BME280;11298;46.034;14.496;2022-07-01T13:20:10;97807.41;;;36.61;31.77
22259;BME280;11298;46.034;14.496;2022-07-01T13:22:38;97826.81;;;36.62;32.18
22259;BME280;11298;46.034;14.496;2022-07-01T13:25:07;97825.63;;;36.63;33.04
22259;BME280;11298;46.034;14.496;2022-07-01T13:27:35;97834.97;;;36.74;32.89
22259;BME280;11298;46.034;14.496;2022-07-01T13:30:04;97832.88;;;36.09;32.61
22259;BME280;11298;46.034;14.496;2022-07-01T13:32:31;97824.84;;;35.67;33.77
22259;BME280;11298;46.034;14.496;2022-07-01T13:34:59;97827.41;;;35.83;34.23
22259;BME280;11298;46.034;14.496;2022-07-01T13:37:27;97813.09;;;36.09;34.00
22259;BME280;11298;46.034;14.496;2022-07-01T13:39:54;97820.41;;;36.69;34.64
22259;BME280;11298;46.034;14.496;2022-07-01T13:42:21;97816.94;;;37.11;37.64
22259;BME280;11298;46.034;14.496;2022-07-01T13:44:48;97827.53;;;37.21;36.90
22259;BME280;11298;46.034;14.496;2022-07-01T13:47:17;97830.66;;;36.98;36.57
22259;BME280;11298;46.034;14.496;2022-07-01T13:49:44;97847.94;;;36.75;37.52
22259;BME280;11298;46.034;14.496;2022-07-01T13:52:12;97832.75;;;36.43;37.96
22259;BME280;11298;46.034;14.496;2022-07-01T13:54:39;97831.25;;;36.08;35.73
22259;BME280;11298;46.034;14.496;2022-07-01T13:57:07;97832.56;;;35.77;36.89
22259;BME280;11298;46.034;14.496;2022-07-01T13:59:34;97843.28;;;35.57;35.49
22259;BME280;11298;46.034;14.496;2022-07-01T14:02:08;97829.56;;;35.22;35.86
22259;BME280;11298;46.034;14.496;2022-07-01T14:04:36;97822.97;;;35.11;36.24
22259;BME280;11298;46.034;14.496;2022-07-01T14:07:03;97827.72;;;35.04;36.97
22259;BME280;11298;46.034;14.496;2022-07-01T14:09:31;97822.28;;;34.58;37.42
22259;BME280;11298;46.034;14.496;2022-07-01T14:11:58;97811.22;;;34.19;38.62
22259;BME280;11298;46.034;14.496;2022-07-01T14:14:29;97804.81;;;33.96;39.45
22259;BME280;11298;46.034;14.496;2022-07-01T14:16:56;97803.56;;;33.93;40.04
22259;BME280;11298;46.034;14.496;2022-07-01T14:19:23;97797.19;;;34.00;39.27
22259;BME280;11298;46.034;14.496;2022-07-01T14:21:50;97791.31;;;34.09;39.09
22259;BME280;11298;46.034;14.496;2022-07-01T14:24:17;97794.63;;;34.14;39.15
22259;BME280;11298;46.034;14.496;2022-07-01T14:26:44;97785.91;;;34.49;39.70
22259;BME280;11298;46.034;14.496;2022-07-01T14:29:11;97796.94;;;34.91;38.51
22259;BME280;11298;46.034;14.496;2022-07-01T14:31:39;97782.66;;;35.11;39.20
22259;BME280;11298;46.034;14.496;2022-07-01T14:34:06;97785.56;;;34.84;38.27
22259;BME280;11298;46.034;14.496;2022-07-01T14:36:33;97782.00;;;34.31;38.93
22259;BME280;11298;46.034;14.496;2022-07-01T14:39:00;97801.06;;;33.88;40.08
22259;BME280;11298;46.034;14.496;2022-07-01T14:41:27;97799.84;;;33.44;40.89
22259;BME280;11298;46.034;14.496;2022-07-01T14:43:54;97798.03;;;33.13;41.64
22259;BME280;11298;46.034;14.496;2022-07-01T14:46:21;97804.47;;;33.13;42.16
22259;BME280;11298;46.034;14.496;2022-07-01T14:48:48;97803.50;;;33.06;42.71
22259;BME280;11298;46.034;14.496;2022-07-01T14:51:16;97796.25;;;33.05;43.39
22259;BME280;11298;46.034;14.496;2022-07-01T14:53:43;97796.84;;;32.94;43.85
22259;BME280;11298;46.034;14.496;2022-07-01T14:56:12;97804.25;;;33.03;43.92
22259;BME280;11298;46.034;14.496;2022-07-01T14:58:39;97798.47;;;32.95;43.45
22259;BME280;11298;46.034;14.496;2022-07-01T15:01:09;97787.94;;;32.73;43.64
22259;BME280;11298;46.034;14.496;2022-07-01T15:03:37;97801.47;;;32.68;44.12
22259;BME280;11298;46.034;14.496;2022-07-01T15:06:04;97802.50;;;32.59;44.14
22259;BME280;11298;46.034;14.496;2022-07-01T15:08:31;97802.50;;;32.59;44.59
22259;BME280;11298;46.034;14.496;2022-07-01T15:10:58;97813.69;;;32.56;44.18
22259;BME280;11298;46.034;14.496;2022-07-01T15:13:33;97820.63;;;32.43;44.47
22259;BME280;11298;46.034;14.496;2022-07-01T15:16:02;97830.50;;;32.37;44.71
22259;BME280;11298;46.034;14.496;2022-07-01T15:18:30;97823.09;;;32.13;45.21
22259;BME280;11298;46.034;14.496;2022-07-01T15:20:59;97828.63;;;32.09;44.80
22259;BME280;11298;46.034;14.496;2022-07-01T15:23:27;97817.34;;;31.74;45.83
22259;BME280;11298;46.034;14.496;2022-07-01T15:25:56;97821.19;;;31.38;45.27
22259;BME280;11298;46.034;14.496;2022-07-01T15:28:23;97809.09;;;31.22;45.38
22259;BME280;11298;46.034;14.496;2022-07-01T15:30:51;97815.00;;;31.17;45.95
22259;BME280;11298;46.034;14.496;2022-07-01T15:33:19;97809.44;;;31.20;46.43
22259;BME280;11298;46.034;14.496;2022-07-01T15:35:47;97816.91;;;31.28;44.53
22259;BME280;11298;46.034;14.496;2022-07-01T15:38:14;97824.03;;;30.98;43.13
22259;BME280;11298;46.034;14.496;2022-07-01T15:40:41;97826.97;;;30.89;43.28
22259;BME280;11298;46.034;14.496;2022-07-01T15:43:08;97842.72;;;30.54;45.70
22259;BME280;11298;46.034;14.496;2022-07-01T15:45:35;97849.91;;;30.03;47.82
22259;BME280;11298;46.034;14.496;2022-07-01T15:48:03;97862.28;;;29.44;50.02
22259;BME280;11298;46.034;14.496;2022-07-01T15:50:38;97867.16;;;29.14;51.08
22259;BME280;11298;46.034;14.496;2022-07-01T15:53:05;97867.72;;;29.08;50.98
22259;BME280;11298;46.034;14.496;2022-07-01T15:55:32;97872.91;;;28.97;50.39
22259;BME280;11298;46.034;14.496;2022-07-01T15:58:00;97860.69;;;28.81;50.36
22259;BME280;11298;46.034;14.496;2022-07-01T16:00:28;97859.81;;;28.89;49.90
22259;BME280;11298;46.034;14.496;2022-07-01T16:02:55;97863.25;;;28.94;50.37
22259;BME280;11298;46.034;14.496;2022-07-01T16:05:22;97864.88;;;28.95;48.31
22259;BME280;11298;46.034;14.496;2022-07-01T16:07:57;97849.50;;;28.81;46.25
22259;BME280;11298;46.034;14.496;2022-07-01T16:10:32;97864.81;;;28.83;45.94
22259;BME280;11298;46.034;14.496;2022-07-01T16:13:02;97863.91;;;28.91;45.70
22259;BME280;11298;46.034;14.496;2022-07-01T16:15:34;97872.31;;;28.91;45.40
22259;BME280;11298;46.034;14.496;2022-07-01T16:18:06;97878.63;;;28.59;45.25
22259;BME280;11298;46.034;14.496;2022-07-01T16:20:44;97874.56;;;28.48;46.02
22259;BME280;11298;46.034;14.496;2022-07-01T16:23:14;97879.19;;;28.44;46.03
22259;BME280;11298;46.034;14.496;2022-07-01T16:25:42;97892.13;;;28.27;46.91
22259;BME280;11298;46.034;14.496;2022-07-01T16:28:12;97889.16;;;27.94;47.67
22259;BME280;11298;46.034;14.496;2022-07-01T16:30:40;97883.59;;;27.86;48.28
22259;BME280;11298;46.034;14.496;2022-07-01T16:33:08;97891.66;;;27.79;48.39
22259;BME280;11298;46.034;14.496;2022-07-01T16:35:42;97880.50;;;27.79;49.30
22259;BME280;11298;46.034;14.496;2022-07-01T16:38:14;97900.25;;;27.48;49.34
22259;BME280;11298;46.034;14.496;2022-07-01T16:40:49;97890.56;;;27.54;49.12
22259;BME280;11298;46.034;14.496;2022-07-01T16:43:20;97891.88;;;27.56;50.21
22259;BME280;11298;46.034;14.496;2022-07-01T16:45:50;97912.41;;;27.60;49.19
22259;BME280;11298;46.034;14.496;2022-07-01T16:48:24;97909.75;;;27.55;50.35
22259;BME280;11298;46.034;14.496;2022-07-01T16:50:53;97913.38;;;27.56;48.93
22259;BME280;11298;46.034;14.496;2022-07-01T16:53:21;97903.03;;;27.56;49.26
22259;BME280;11298;46.034;14.496;2022-07-01T16:55:53;97903.50;;;27.76;48.68
22259;BME280;11298;46.034;14.496;2022-07-01T16:58:22;97902.06;;;27.69;50.23
22259;BME280;11298;46.034;14.496;2022-07-01T17:00:51;97900.44;;;27.60;50.30
22259;BME280;11298;46.034;14.496;2022-07-01T17:03:18;97895.69;;;27.60;51.54
22259;BME280;11298;46.034;14.496;2022-07-01T17:05:49;97906.50;;;27.53;51.68
22259;BME280;11298;46.034;14.496;2022-07-01T17:08:19;97890.25;;;27.64;52.60
22259;BME280;11298;46.034;14.496;2022-07-01T17:10:46;97893.00;;;27.73;51.31
22259;BME280;11298;46.034;14.496;2022-07-01T17:13:14;97900.41;;;27.68;51.09
22259;BME280;11298;46.034;14.496;2022-07-01T17:15:41;97891.50;;;27.75;53.20
22259;BME280;11298;46.034;14.496;2022-07-01T17:18:08;97901.66;;;27.88;54.02
22259;BME280;11298;46.034;14.496;2022-07-01T17:20:36;97910.00;;;27.97;53.56
22259;BME280;11298;46.034;14.496;2022-07-01T17:23:29;97908.16;;;28.01;51.90
22259;BME280;11298;46.034;14.496;2022-07-01T17:26:00;97900.28;;;28.03;52.12
22259;BME280;11298;46.034;14.496;2022-07-01T17:31:28;97910.56;;;28.11;52.20
22259;BME280;11298;46.034;14.496;2022-07-01T17:33:58;97910.56;;;28.11;50.36
22259;BME280;11298;46.034;14.496;2022-07-01T17:36:27;97917.13;;;28.15;52.58
22259;BME280;11298;46.034;14.496;2022-07-01T17:39:15;97922.03;;;28.18;52.35
22259;BME280;11298;46.034;14.496;2022-07-01T17:41:46;97931.06;;;28.24;52.67
22259;BME280;11298;46.034;14.496;2022-07-01T17:44:14;97926.47;;;28.19;52.20
22259;BME280;11298;46.034;14.496;2022-07-01T17:46:42;97931.59;;;28.09;52.90
22259;BME280;11298;46.034;14.496;2022-07-01T17:49:16;97930.84;;;27.99;53.30
22259;BME280;11298;46.034;14.496;2022-07-01T17:51:43;97950.09;;;27.84;53.47
22259;BME280;11298;46.034;14.496;2022-07-01T17:54:16;97951.47;;;27.60;53.94
22259;BME280;11298;46.034;14.496;2022-07-01T17:56:43;97956.72;;;27.71;54.29
22259;BME280;11298;46.034;14.496;2022-07-01T17:59:16;97956.72;;;27.71;54.30
22259;BME280;11298;46.034;14.496;2022-07-01T18:01:46;97951.56;;;27.81;54.74
22259;BME280;11298;46.034;14.496;2022-07-01T18:04:23;97952.88;;;27.84;53.63
22259;BME280;11298;46.034;14.496;2022-07-01T18:06:52;97945.78;;;27.95;54.06
22259;BME280;11298;46.034;14.496;2022-07-01T18:09:19;97940.53;;;27.93;53.89
22259;BME280;11298;46.034;14.496;2022-07-01T18:15:04;97944.28;;;28.06;54.07
22259;BME280;11298;46.034;14.496;2022-07-01T18:17:18;97945.00;;;27.86;53.90
22259;BME280;11298;46.034;14.496;2022-07-01T18:22:40;97946.69;;;27.52;55.46
22259;BME280;11298;46.034;14.496;2022-07-01T18:25:10;97935.91;;;27.33;55.81
22259;BME280;11298;46.034;14.496;2022-07-01T18:27:42;97935.72;;;27.38;56.09
22259;BME280;11298;46.034;14.496;2022-07-01T18:30:12;97940.34;;;27.26;56.16
22259;BME280;11298;46.034;14.496;2022-07-01T18:32:43;97944.44;;;27.28;56.65
22259;BME280;11298;46.034;14.496;2022-07-01T18:35:14;97951.00;;;27.32;56.14
22259;BME280;11298;46.034;14.496;2022-07-01T18:40:13;97970.00;;;27.39;57.60
22259;BME280;11298;46.034;14.496;2022-07-01T18:42:41;97965.91;;;27.28;56.89
22259;BME280;11298;46.034;14.496;2022-07-01T18:45:09;97961.81;;;27.08;57.10
22259;BME280;11298;46.034;14.496;2022-07-01T18:47:36;97964.59;;;26.99;57.70
22259;BME280;11298;46.034;14.496;2022-07-01T18:50:06;97968.22;;;27.00;57.85
22259;BME280;11298;46.034;14.496;2022-07-01T18:52:34;97969.19;;;27.04;58.04
22259;BME280;11298;46.034;14.496;2022-07-01T18:55:01;97966.06;;;27.06;57.92
22259;BME280;11298;46.034;14.496;2022-07-01T18:57:36;97975.25;;;27.06;58.18
22259;BME280;11298;46.034;14.496;2022-07-01T19:00:05;97974.44;;;27.06;58.26
22259;BME280;11298;46.034;14.496;2022-07-01T19:02:32;97978.50;;;26.91;59.45
22259;BME280;11298;46.034;14.496;2022-07-01T19:04:59;97976.19;;;26.84;59.88
22259;BME280;11298;46.034;14.496;2022-07-01T19:07:26;97976.00;;;26.81;60.46
22259;BME280;11298;46.034;14.496;2022-07-01T19:09:58;97987.00;;;26.86;60.83
22259;BME280;11298;46.034;14.496;2022-07-01T19:12:26;97981.59;;;26.89;61.15
22259;BME280;11298;46.034;14.496;2022-07-01T19:14:53;97994.56;;;26.94;60.87
22259;BME280;11298;46.034;14.496;2022-07-01T19:17:21;98001.13;;;26.89;61.06
22259;BME280;11298;46.034;14.496;2022-07-01T19:19:48;98005.91;;;26.97;61.42
22259;BME280;11298;46.034;14.496;2022-07-01T19:22:16;98007.69;;;26.93;62.07
22259;BME280;11298;46.034;14.496;2022-07-01T19:24:43;98010.28;;;26.90;61.78
22259;BME280;11298;46.034;14.496;2022-07-01T19:27:13;98016.34;;;26.83;62.75
22259;BME280;11298;46.034;14.496;2022-07-01T19:29:40;98012.72;;;26.74;62.67
22259;BME280;11298;46.034;14.496;2022-07-01T19:32:08;98015.59;;;26.52;63.29
22259;BME280;11298;46.034;14.496;2022-07-01T19:34:35;98020.13;;;26.39;63.95
22259;BME280;11298;46.034;14.496;2022-07-01T19:37:03;98028.25;;;26.27;64.44
22259;BME280;11298;46.034;14.496;2022-07-01T19:39:32;98035.19;;;26.07;65.60
22259;BME280;11298;46.034;14.496;2022-07-01T19:41:59;98040.31;;;26.14;65.50
22259;BME280;11298;46.034;14.496;2022-07-01T19:44:28;98038.72;;;26.21;65.41
22259;BME280;11298;46.034;14.496;2022-07-01T19:46:56;98045.59;;;26.24;65.58
22259;BME280;11298;46.034;14.496;2022-07-01T19:49:24;98046.75;;;26.23;65.69
22259;BME280;11298;46.034;14.496;2022-07-01T19:51:53;98048.19;;;26.20;66.08
22259;BME280;11298;46.034;14.496;2022-07-01T19:54:23;98055.22;;;26.18;65.96
22259;BME280;11298;46.034;14.496;2022-07-01T19:56:58;98043.50;;;25.98;66.15
22259;BME280;11298;46.034;14.496;2022-07-01T19:59:35;98051.66;;;25.95;66.49
22259;BME280;11298;46.034;14.496;2022-07-01T20:02:07;98057.22;;;25.95;66.77
22259;BME280;11298;46.034;14.496;2022-07-01T20:04:34;98063.44;;;25.92;67.05
22259;BME280;11298;46.034;14.496;2022-07-01T20:07:11;98053.56;;;25.86;67.33
22259;BME280;11298;46.034;14.496;2022-07-01T20:09:38;98060.25;;;25.85;67.46
22259;BME280;11298;46.034;14.496;2022-07-01T20:12:06;98063.28;;;25.75;67.94
22259;BME280;11298;46.034;14.496;2022-07-01T20:14:33;98055.25;;;25.73;68.21
22259;BME280;11298;46.034;14.496;2022-07-01T20:17:01;98055.94;;;25.56;68.82
22259;BME280;11298;46.034;14.496;2022-07-01T20:19:29;98065.94;;;25.57;69.37
22259;BME280;11298;46.034;14.496;2022-07-01T20:21:57;98058.47;;;25.66;69.20
22259;BME280;11298;46.034;14.496;2022-07-01T20:24:24;98068.97;;;25.69;69.22
22259;BME280;11298;46.034;14.496;2022-07-01T20:26:52;98075.91;;;25.58;69.48
22259;BME280;11298;46.034;14.496;2022-07-01T20:29:19;98064.69;;;25.63;69.26
22259;BME280;11298;46.034;14.496;2022-07-01T20:31:46;98062.78;;;25.73;68.82
22259;BME280;11298;46.034;14.496;2022-07-01T20:34:13;98067.41;;;25.77;69.32
22259;BME280;11298;46.034;14.496;2022-07-01T20:36:40;98074.47;;;25.61;69.71
22259;BME280;11298;46.034;14.496;2022-07-01T20:39:08;98082.88;;;25.69;68.70
22259;BME280;11298;46.034;14.496;2022-07-01T20:41:36;98077.31;;;25.69;68.67
22259;BME280;11298;46.034;14.496;2022-07-01T20:44:04;98081.66;;;25.62;69.08
22259;BME280;11298;46.034;14.496;2022-07-01T20:46:32;98087.44;;;25.65;69.14
22259;BME280;11298;46.034;14.496;2022-07-01T20:48:59;98088.25;;;25.66;69.49
22259;BME280;11298;46.034;14.496;2022-07-01T20:51:27;98095.06;;;25.60;69.73
22259;BME280;11298;46.034;14.496;2022-07-01T20:53:54;98104.34;;;25.55;69.79
22259;BME280;11298;46.034;14.496;2022-07-01T20:56:22;98099.19;;;25.62;69.36
22259;BME280;11298;46.034;14.496;2022-07-01T20:58:54;98100.19;;;25.66;69.75
22259;BME280;11298;46.034;14.496;2022-07-01T21:01:38;98108.91;;;25.37;70.28
22259;BME280;11298;46.034;14.496;2022-07-01T21:04:05;98117.13;;;25.43;70.46
22259;BME280;11298;46.034;14.496;2022-07-01T21:06:32;98125.69;;;25.46;70.18
22259;BME280;11298;46.034;14.496;2022-07-01T21:08:59;98122.38;;;25.44;70.21
22259;BME280;11298;46.034;14.496;2022-07-01T21:11:26;98118.59;;;25.40;71.17
22259;BME280;11298;46.034;14.496;2022-07-01T21:13:53;98121.94;;;25.28;71.14
22259;BME280;11298;46.034;14.496;2022-07-01T21:16:20;98116.91;;;25.03;72.36
22259;BME280;11298;46.034;14.496;2022-07-01T21:18:47;98110.09;;;24.95;73.24
22259;BME280;11298;46.034;14.496;2022-07-01T21:21:14;98117.00;;;25.12;72.95
22259;BME280;11298;46.034;14.496;2022-07-01T21:23:41;98130.69;;;25.22;72.11
22259;BME280;11298;46.034;14.496;2022-07-01T21:26:08;98135.72;;;25.20;71.72
22259;BME280;11298;46.034;14.496;2022-07-01T21:28:35;98135.94;;;25.10;72.56
22259;BME280;11298;46.034;14.496;2022-07-01T21:31:02;98127.69;;;25.04;72.71
22259;BME280;11298;46.034;14.496;2022-07-01T21:33:30;98134.38;;;25.03;73.04
22259;BME280;11298;46.034;14.496;2022-07-01T21:36:00;98138.19;;;25.08;72.86
22259;BME280;11298;46.034;14.496;2022-07-01T21:38:28;98132.75;;;25.02;73.02
22259;BME280;11298;46.034;14.496;2022-07-01T21:40:56;98123.59;;;25.02;72.94
22259;BME280;11298;46.034;14.496;2022-07-01T21:43:24;98130.06;;;24.97;73.31
22259;BME280;11298;46.034;14.496;2022-07-01T21:45:53;98142.91;;;24.80;73.62
22259;BME280;11298;46.034;14.496;2022-07-01T21:48:22;98150.91;;;24.67;74.47
22259;BME280;11298;46.034;14.496;2022-07-01T21:50:50;98145.78;;;24.75;74.28
22259;BME280;11298;46.034;14.496;2022-07-01T21:53:21;98160.81;;;24.73;74.29
22259;BME280;11298;46.034;14.496;2022-07-01T21:55:50;98160.28;;;24.71;74.34
22259;BME280;11298;46.034;14.496;2022-07-01T21:58:17;98163.88;;;24.72;74.56
22259;BME280;11298;46.034;14.496;2022-07-01T22:00:44;98170.25;;;24.72;74.51
22259;BME280;11298;46.034;14.496;2022-07-01T22:03:15;98174.56;;;24.65;74.70
22259;BME280;11298;46.034;14.496;2022-07-01T22:05:42;98180.53;;;24.58;74.54
22259;BME280;11298;46.034;14.496;2022-07-01T22:08:29;98187.25;;;24.38;75.03
22259;BME280;11298;46.034;14.496;2022-07-01T22:10:56;98188.75;;;24.50;74.91
22259;BME280;11298;46.034;14.496;2022-07-01T22:13:27;98186.78;;;24.50;74.94
22259;BME280;11298;46.034;14.496;2022-07-01T22:16:01;98191.25;;;24.32;75.80
22259;BME280;11298;46.034;14.496;2022-07-01T22:18:29;98195.06;;;24.36;75.68
22259;BME280;11298;46.034;14.496;2022-07-01T22:20:56;98204.22;;;24.37;75.40
22259;BME280;11298;46.034;14.496;2022-07-01T22:23:24;98214.59;;;24.31;76.06